This is the latest recevied weather packets stored in our database for station/object KO6SRA-13. If no packets are shown the sender has not sent any weather packets the latest 10 day(s).
| Time | Temp. | Humidity | Pressure | Rain* | Wind** | Luminosity | Snow |
|---|---|---|---|---|---|---|---|
| 1787613329 | 21.11° C | 69% | 1018 hPa | 0 mm | - | 496 W/m² | - |
| 1787613025 | 21.67° C | 68% | 1018 hPa | 0 mm | - | 501 W/m² | - |
| 1787612721 | 21.67° C | 66% | 1018.2 hPa | 0 mm | - | 501 W/m² | - |
| 1787612418 | 21.11° C | 68% | 1018 hPa | 0 mm | - | 519 W/m² | - |
| 1787612113 | 21.67° C | 67% | 1018 hPa | 0 mm | - | 518 W/m² | - |
| 1787611809 | 21.67° C | 67% | 1018.2 hPa | 0 mm | - | 545 W/m² | - |
| 1787611505 | 21.11° C | 70% | 1017.9 hPa | 0 mm | - | 535 W/m² | - |
| 1787611201 | 21.11° C | 69% | 1018 hPa | 0 mm | - | 501 W/m² | - |
| 1787610901 | 21.11° C | 69% | 1018 hPa | 0 mm | - | 489 W/m² | - |
| 1787610596 | 21.67° C | 68% | 1018.1 hPa | 0 mm | - | 553 W/m² | - |
| 1787610292 | 21.67° C | 66% | 1018.1 hPa | 0 mm | - | 626 W/m² | - |
| 1787609990 | 21.11° C | 69% | 1018.1 hPa | 0 mm | - | 621 W/m² | - |
| 1787609685 | 21.11° C | 67% | 1018.1 hPa | 0 mm | - | 618 W/m² | - |
| 1787609380 | 21.67° C | 68% | 1018 hPa | 0 mm | - | 611 W/m² | - |
| 1787609079 | 21.11° C | 69% | 1018.1 hPa | 0 mm | - | 597 W/m² | - |
| 1787608774 | 20.56° C | 71% | 1018.2 hPa | 0 mm | - | 622 W/m² | - |
| 1787608474 | 21.11° C | 70% | 1018.3 hPa | 0 mm | - | 634 W/m² | - |
| 1787608170 | 21.11° C | 69% | 1018.4 hPa | 0 mm | - | 630 W/m² | - |
| 1787607867 | 21.11° C | 71% | 1018.5 hPa | 0 mm | - | 630 W/m² | - |
| 1787607564 | 20.56° C | 71% | 1018.5 hPa | 0 mm | - | 649 W/m² | - |
| 1787607260 | 20.56° C | 71% | 1018.5 hPa | 0 mm | - | 645 W/m² | - |
| 1787606956 | 20° C | 72% | 1018.7 hPa | 0 mm | - | 621 W/m² | - |
| 1787606654 | 20.56° C | 72% | 1018.9 hPa | 0 mm | - | 645 W/m² | - |
| 1787606349 | 20.56° C | 72% | 1018.8 hPa | 0 mm | - | 654 W/m² | - |
| 1787606043 | 20° C | 72% | 1018.9 hPa | 0 mm | - | 666 W/m² | - |
* Rain latest hour (hover to see other rain measurements)
** Current wind speed in m/s (hover to see current wind gust speed)